createdAt,value
2019-05-20T00:01:11.715Z,5.50
2019-05-20T00:06:08.732Z,6.22
2019-05-20T00:08:37.752Z,6.08
2019-05-20T00:11:07.950Z,6.03
2019-05-20T00:13:37.347Z,6.53
2019-05-20T00:16:06.411Z,6.45
2019-05-20T00:21:04.558Z,5.70
2019-05-20T00:23:33.386Z,4.53
2019-05-20T00:26:02.732Z,4.30
2019-05-20T00:28:32.926Z,4.35
2019-05-20T00:31:01.974Z,4.33
2019-05-20T00:33:30.938Z,4.83
2019-05-20T00:35:59.938Z,4.87
2019-05-20T00:38:28.979Z,4.20
2019-05-20T00:40:57.777Z,4.22
2019-05-20T00:45:55.505Z,4.37
2019-05-20T00:48:24.589Z,3.87
2019-05-20T00:50:53.558Z,4.62
2019-05-20T00:53:22.553Z,4.80
2019-05-20T00:55:51.670Z,5.03
2019-05-20T00:58:20.434Z,4.50
2019-05-20T01:00:49.666Z,4.55
2019-05-20T01:05:46.947Z,4.05
2019-05-20T01:08:15.922Z,4.55
2019-05-20T01:10:45.931Z,3.50
2019-05-20T01:13:15.049Z,3.85
2019-05-20T01:15:44.727Z,3.08
2019-05-20T01:20:42.912Z,3.35
2019-05-20T01:23:12.294Z,3.22
2019-05-20T01:25:41.898Z,3.35
2019-05-20T01:28:10.760Z,3.08
2019-05-20T01:30:39.771Z,3.42
2019-05-20T01:38:06.918Z,3.12
2019-05-20T01:40:35.753Z,2.55
2019-05-20T01:45:33.097Z,2.72
2019-05-20T01:48:02.290Z,2.72
2019-05-20T01:50:31.559Z,2.98
2019-05-20T01:53:00.440Z,2.70
2019-05-20T01:55:29.347Z,3.08
2019-05-20T01:57:58.045Z,3.52
2019-05-20T02:00:27.096Z,3.12
2019-05-20T02:02:55.933Z,3.40
2019-05-20T02:05:25.035Z,3.10
2019-05-20T02:07:54.122Z,2.77
2019-05-20T02:10:22.915Z,3.02
2019-05-20T02:12:51.995Z,3.55
2019-05-20T02:15:27.853Z,3.45
2019-05-20T02:17:56.745Z,2.95
2019-05-20T02:22:56.493Z,4.33
2019-05-20T02:25:25.430Z,3.83
2019-05-20T02:27:54.401Z,4.40
2019-05-20T02:30:23.403Z,4.17
2019-05-20T02:32:52.392Z,4.42
2019-05-20T02:35:21.564Z,3.67
2019-05-20T02:37:50.746Z,4.92
2019-05-20T02:40:19.841Z,4.33
2019-05-20T02:42:49.132Z,4.10
2019-05-20T02:45:18.031Z,4.10
2019-05-20T02:47:47.061Z,3.55
2019-05-20T02:50:16.415Z,4.15
2019-05-20T02:52:45.417Z,4.70
2019-05-20T02:55:15.423Z,5.55
2019-05-20T02:57:44.555Z,5.05
2019-05-20T03:00:15.131Z,4.85
2019-05-20T03:02:44.100Z,5.58
2019-05-20T03:05:13.599Z,5.10
2019-05-20T03:07:43.579Z,6.45
2019-05-20T03:10:13.566Z,5.95
2019-05-20T03:12:43.025Z,5.45
2019-05-20T03:15:12.817Z,6.75
2019-05-20T03:17:42.109Z,6.10
2019-05-20T03:20:12.537Z,5.67
2019-05-20T03:22:41.960Z,5.72
2019-05-20T03:25:13.573Z,5.80
2019-05-20T03:27:42.552Z,6.50
2019-05-20T03:30:12.951Z,5.00
2019-05-20T03:32:41.920Z,4.78
2019-05-20T03:35:12.932Z,5.25
2019-05-20T03:37:41.924Z,5.00
2019-05-20T03:40:11.305Z,5.28
2019-05-20T03:42:40.156Z,5.25
2019-05-20T03:45:09.419Z,5.40
2019-05-20T03:47:38.406Z,5.25
2019-05-20T03:50:07.907Z,5.95
2019-05-20T03:52:36.998Z,5.67
2019-05-20T03:55:06.947Z,6.53
2019-05-20T03:57:35.873Z,5.92
2019-05-20T04:00:06.295Z,6.78
2019-05-20T04:02:35.390Z,7.30
2019-05-20T04:05:04.711Z,6.15
2019-05-20T04:10:29.129Z,7.10
2019-05-20T04:13:00.075Z,6.50
2019-05-20T04:15:29.273Z,6.90
2019-05-20T04:17:58.439Z,6.30
2019-05-20T04:20:27.498Z,6.00
2019-05-20T04:22:56.398Z,6.85
2019-05-20T04:25:25.853Z,6.37
2019-05-20T04:27:54.957Z,7.22
2019-05-20T04:30:24.042Z,7.40
2019-05-20T04:32:52.982Z,7.78
2019-05-20T04:35:23.502Z,6.58
2019-05-20T04:37:52.911Z,6.75
2019-05-20T04:40:22.102Z,6.65
2019-05-20T04:42:50.936Z,6.67
2019-05-20T04:45:19.947Z,5.90
2019-05-20T04:47:48.932Z,5.60
2019-05-20T04:50:19.106Z,5.70
2019-05-20T04:52:47.927Z,6.15
2019-05-20T04:55:16.743Z,6.90
2019-05-20T05:00:16.748Z,5.90
2019-05-20T05:05:14.626Z,5.80
2019-05-20T05:07:43.592Z,5.65
2019-05-20T05:10:12.849Z,5.87
2019-05-20T05:12:41.720Z,6.87
2019-05-20T05:17:42.753Z,7.45
2019-05-20T05:22:42.391Z,6.70
2019-05-20T05:25:12.012Z,6.72
2019-05-20T05:27:40.916Z,6.58
2019-05-20T05:30:10.556Z,6.22
2019-05-20T05:32:42.109Z,6.83
2019-05-20T05:35:13.637Z,6.47
2019-05-20T05:37:42.550Z,6.67
2019-05-20T05:40:12.580Z,6.80
2019-05-20T05:45:10.739Z,6.20
2019-05-20T05:50:08.925Z,6.33
2019-05-20T05:52:38.034Z,6.33
2019-05-20T05:55:08.049Z,6.28
2019-05-20T05:57:37.053Z,6.60
2019-05-20T06:00:10.128Z,6.30
2019-05-20T06:02:39.051Z,6.78
2019-05-20T06:05:07.935Z,6.33
2019-05-20T06:07:36.937Z,6.40
2019-05-20T06:10:06.091Z,6.40
2019-05-20T06:12:35.074Z,6.75
2019-05-20T06:15:04.617Z,7.10
2019-05-20T06:17:33.733Z,6.70
2019-05-20T06:22:30.762Z,6.47
2019-05-20T06:27:27.994Z,7.80
2019-05-20T06:29:57.289Z,7.58
2019-05-20T06:32:26.300Z,7.55
2019-05-20T06:34:55.501Z,8.95
2019-05-20T06:37:26.990Z,9.93
2019-05-20T06:39:55.930Z,10.70
2019-05-20T06:42:25.116Z,13.03
2019-05-20T06:44:57.326Z,14.83
2019-05-20T06:47:26.926Z,14.93
2019-05-20T06:49:56.710Z,15.50
2019-05-20T06:54:55.926Z,13.85
2019-05-20T06:57:24.913Z,15.05
2019-05-20T06:59:53.926Z,14.80
2019-05-20T07:02:22.698Z,14.78
2019-05-20T07:07:21.330Z,15.40
2019-05-20T07:09:50.555Z,15.03
2019-05-20T07:12:19.718Z,15.55
2019-05-20T07:17:17.719Z,14.68
2019-05-20T07:22:14.938Z,14.18
2019-05-20T07:24:43.922Z,13.48
2019-05-20T07:27:13.038Z,14.45
2019-05-20T07:29:42.066Z,14.20
2019-05-20T07:32:11.387Z,13.78
2019-05-20T07:34:40.422Z,13.83
2019-05-20T07:37:09.428Z,13.45
2019-05-20T07:39:38.582Z,14.10
2019-05-20T07:47:03.778Z,14.98
2019-05-20T07:49:34.951Z,16.02
2019-05-20T07:52:05.149Z,16.77
2019-05-20T07:54:34.874Z,16.35
2019-05-20T07:57:10.107Z,16.42
2019-05-20T07:59:41.956Z,17.05
2019-05-20T08:02:11.957Z,17.90
2019-05-20T08:04:41.189Z,17.32
2019-05-20T08:07:29.896Z,16.75
2019-05-20T08:12:36.359Z,17.70
2019-05-20T08:15:31.446Z,18.05
2019-05-20T08:18:06.422Z,18.15
2019-05-20T08:23:31.609Z,16.90
2019-05-20T08:26:57.757Z,16.90
2019-05-20T08:29:48.179Z,15.88
2019-05-20T08:33:27.701Z,15.68
2019-05-20T08:38:29.588Z,17.48
2019-05-20T08:40:58.601Z,15.43
2019-05-20T08:47:28.364Z,16.95
2019-05-20T08:49:51.300Z,16.25
2019-05-20T08:54:48.959Z,16.80
2019-05-20T08:57:18.612Z,18.77
2019-05-20T09:03:10.961Z,17.23
2019-05-20T09:07:16.339Z,15.80
2019-05-20T09:09:56.402Z,16.25
2019-05-20T09:12:27.535Z,15.40
2019-05-20T09:17:25.494Z,15.60
2019-05-20T09:19:54.538Z,14.95
2019-05-20T09:22:25.949Z,16.07
2019-05-20T09:24:55.520Z,15.00
2019-05-20T09:27:24.730Z,16.30
2019-05-20T09:29:53.955Z,15.80
2019-05-20T09:32:24.296Z,14.13
2019-05-20T09:34:54.607Z,14.43
2019-05-20T09:37:23.703Z,14.25
2019-05-20T09:39:53.268Z,15.32
2019-05-20T09:42:23.443Z,15.40
2019-05-20T09:44:53.435Z,14.60
2019-05-20T09:47:22.560Z,15.20
2019-05-20T09:54:24.256Z,15.60
2019-05-20T09:56:51.119Z,17.70
2019-05-20T09:59:20.274Z,17.35
2019-05-20T10:01:50.192Z,16.70
2019-05-20T10:05:11.832Z,18.20
2019-05-20T10:07:49.815Z,19.35
2019-05-20T10:10:20.224Z,18.05
2019-05-20T10:13:37.392Z,19.17
2019-05-20T10:16:11.471Z,20.23
2019-05-20T10:19:21.942Z,18.62
2019-05-20T10:21:52.154Z,19.82
2019-05-20T10:26:04.029Z,20.00
2019-05-20T10:39:08.569Z,22.75
2019-05-20T10:42:20.464Z,23.80
2019-05-20T10:46:15.549Z,24.95
2019-05-20T10:56:12.838Z,26.60
2019-05-20T10:58:42.421Z,26.95
2019-05-20T11:01:11.438Z,26.52
2019-05-20T11:03:40.583Z,25.92
2019-05-20T11:06:09.718Z,25.80
2019-05-20T11:11:07.488Z,27.20
2019-05-20T11:13:37.459Z,26.42
2019-05-20T11:16:06.521Z,27.30
2019-05-20T11:18:35.636Z,29.75
2019-05-20T11:23:33.580Z,31.80
2019-05-20T11:26:02.789Z,32.23
2019-05-20T11:31:00.094Z,31.15
2019-05-20T11:33:32.005Z,31.68
2019-05-20T11:36:00.948Z,31.35
2019-05-20T11:38:29.988Z,32.00
2019-05-20T11:40:58.990Z,34.43
2019-05-20T11:43:27.909Z,34.95
2019-05-20T11:45:56.824Z,37.25
2019-05-20T11:48:25.814Z,36.08
2019-05-20T11:50:54.829Z,38.92
2019-05-20T11:53:24.113Z,38.88
2019-05-20T11:55:53.101Z,36.38
2019-05-20T11:58:22.105Z,36.45
2019-05-20T12:00:51.115Z,40.08
2019-05-20T12:03:20.723Z,40.85
2019-05-20T12:08:19.534Z,39.65
2019-05-20T12:10:49.304Z,41.50
2019-05-20T12:13:18.899Z,39.25
2019-05-20T12:15:48.909Z,35.15
2019-05-20T12:18:19.745Z,35.75
2019-05-20T12:25:47.753Z,35.75
2019-05-20T12:28:17.569Z,34.10
2019-05-20T12:30:47.415Z,34.18
2019-05-20T12:33:18.982Z,35.30
2019-05-20T12:35:47.988Z,33.65
2019-05-20T12:38:17.937Z,32.55
2019-05-20T12:40:47.798Z,35.48
2019-05-20T12:43:17.907Z,34.53
2019-05-20T12:45:47.668Z,37.10
2019-05-20T12:48:16.585Z,33.20
2019-05-20T12:50:46.480Z,31.97
2019-05-20T12:53:16.585Z,31.70
2019-05-20T12:55:45.604Z,29.90
2019-05-20T12:58:14.696Z,33.58
2019-05-20T13:00:44.893Z,31.25
2019-05-20T13:03:13.847Z,31.52
2019-05-20T13:05:42.742Z,32.98
2019-05-20T13:10:40.504Z,30.25
2019-05-20T13:13:10.309Z,32.35
2019-05-20T13:15:39.481Z,28.02
2019-05-20T13:18:08.608Z,32.38
2019-05-20T13:20:37.713Z,30.55
2019-05-20T13:25:36.764Z,29.12
2019-05-20T13:28:05.791Z,30.92
2019-05-20T13:30:34.963Z,29.27
2019-05-20T13:33:03.886Z,28.35
2019-05-20T13:35:33.376Z,30.05
2019-05-20T13:38:02.508Z,27.55
2019-05-20T13:40:45.787Z,26.93
2019-05-20T13:43:02.696Z,29.52
2019-05-20T13:45:31.716Z,29.00
2019-05-20T13:48:01.938Z,29.32
2019-05-20T13:50:31.149Z,27.22
2019-05-20T13:52:59.979Z,23.50
2019-05-20T13:55:30.080Z,26.10
2019-05-20T13:57:59.490Z,27.25
2019-05-20T14:00:30.459Z,25.57
2019-05-20T14:02:59.457Z,26.68
2019-05-20T14:05:28.685Z,26.60
2019-05-20T14:10:26.569Z,24.63
2019-05-20T14:15:24.531Z,26.35
2019-05-20T14:20:22.743Z,27.10
2019-05-20T14:25:21.715Z,26.12
2019-05-20T14:27:52.976Z,27.55
2019-05-20T14:30:25.087Z,28.38
2019-05-20T14:32:54.702Z,28.30
2019-05-20T14:37:53.127Z,29.12
2019-05-20T14:40:22.657Z,27.82
2019-05-20T14:42:52.083Z,26.55
2019-05-20T14:45:21.982Z,26.60
2019-05-20T14:47:52.138Z,26.30
2019-05-20T14:50:22.016Z,25.17
2019-05-20T14:52:52.149Z,25.27
2019-05-20T14:55:21.433Z,24.90
2019-05-20T14:57:52.949Z,26.10
2019-05-20T15:00:21.993Z,25.92
2019-05-20T15:02:51.994Z,24.57
2019-05-20T15:05:22.648Z,26.17
2019-05-20T15:07:52.572Z,25.48
2019-05-20T15:10:22.484Z,26.82
2019-05-20T15:12:51.958Z,27.22
2019-05-20T15:15:21.955Z,26.70
2019-05-20T15:17:52.109Z,27.73
2019-05-20T15:20:21.754Z,27.65
2019-05-20T15:22:51.835Z,28.32
2019-05-20T15:25:21.546Z,27.37
2019-05-20T15:30:20.418Z,27.50
2019-05-20T15:32:49.954Z,30.23
2019-05-20T15:35:19.540Z,29.70
2019-05-20T15:37:49.477Z,31.25
2019-05-20T15:40:23.901Z,31.20
2019-05-20T15:42:51.399Z,30.12
2019-05-20T15:45:20.926Z,31.15
2019-05-20T15:47:50.573Z,30.80
2019-05-20T15:52:49.619Z,29.42
2019-05-20T15:57:46.972Z,30.05
2019-05-20T16:00:16.690Z,29.25
2019-05-20T16:02:45.875Z,29.40
2019-05-20T16:05:15.267Z,29.48
2019-05-20T16:07:44.781Z,28.12
2019-05-20T16:12:42.651Z,28.70
2019-05-20T16:17:41.523Z,26.02
2019-05-20T16:20:13.294Z,25.68
2019-05-20T16:22:42.305Z,26.87
2019-05-20T16:25:11.786Z,26.37
2019-05-20T16:27:41.599Z,26.57
2019-05-20T16:30:11.469Z,26.35
2019-05-20T16:32:40.726Z,25.85
2019-05-20T16:35:09.965Z,26.60
2019-05-20T16:37:39.140Z,26.45
2019-05-20T16:40:10.544Z,25.27
2019-05-20T16:43:39.123Z,23.95
2019-05-20T16:46:08.155Z,24.32
2019-05-20T16:48:37.502Z,22.82
2019-05-20T16:51:06.449Z,23.85
2019-05-20T16:53:35.425Z,25.10
2019-05-20T16:56:04.593Z,24.60
2019-05-20T17:01:02.132Z,25.02
2019-05-20T17:03:31.404Z,23.18
2019-05-20T17:06:00.588Z,24.98
2019-05-20T17:08:29.451Z,22.98
2019-05-20T17:10:58.979Z,23.60
2019-05-20T17:13:28.306Z,23.85
2019-05-20T17:15:57.436Z,24.20
2019-05-20T17:18:26.808Z,25.15
2019-05-20T17:20:56.329Z,26.97
2019-05-20T17:23:25.466Z,28.80
2019-05-20T17:25:54.558Z,28.83
2019-05-20T17:30:53.315Z,33.30
2019-05-20T17:33:23.326Z,34.88
2019-05-20T17:35:53.315Z,35.10
2019-05-20T17:38:23.069Z,37.50
2019-05-20T17:40:53.039Z,40.40
2019-05-20T17:43:22.929Z,38.83
2019-05-20T17:45:53.628Z,39.45
2019-05-20T17:50:54.848Z,42.50
2019-05-20T17:53:23.995Z,40.20
2019-05-20T17:55:53.583Z,40.88
2019-05-20T18:00:53.490Z,42.43
2019-05-20T18:03:23.739Z,41.68
2019-05-20T18:05:53.656Z,42.33
2019-05-20T18:08:25.932Z,41.53
2019-05-20T18:10:55.560Z,43.00
2019-05-20T18:13:28.268Z,43.95
2019-05-20T18:15:58.433Z,43.68
2019-05-20T18:21:01.050Z,46.77
2019-05-20T18:23:31.949Z,46.02
2019-05-20T18:26:03.654Z,47.85
2019-05-20T18:28:34.630Z,48.52
2019-05-20T18:33:33.547Z,48.33
2019-05-20T18:36:03.122Z,48.83
2019-05-20T18:38:32.588Z,48.38
2019-05-20T18:41:02.063Z,49.93
2019-05-20T18:43:31.929Z,51.30
2019-05-20T18:46:03.309Z,49.98
2019-05-20T18:48:33.317Z,53.40
2019-05-20T18:51:03.469Z,52.98
2019-05-20T18:53:33.763Z,51.85
2019-05-20T18:58:35.065Z,53.10
2019-05-20T19:01:07.237Z,53.28
2019-05-20T19:03:37.796Z,56.10
2019-05-20T19:06:07.632Z,55.43
2019-05-20T19:11:08.016Z,58.35
2019-05-20T19:13:38.052Z,57.25
2019-05-20T19:16:09.562Z,59.40
2019-05-20T19:18:39.499Z,56.60
2019-05-20T19:21:09.612Z,57.75
2019-05-20T19:28:36.804Z,61.55
2019-05-20T19:31:08.104Z,59.77
2019-05-20T19:33:39.608Z,60.08
2019-05-20T19:36:09.299Z,61.83
2019-05-20T19:38:38.757Z,63.73
2019-05-20T19:41:08.110Z,60.20
2019-05-20T19:43:37.975Z,62.55
2019-05-20T19:46:07.543Z,61.35
2019-05-20T19:51:06.076Z,61.00
2019-05-20T19:53:35.994Z,61.10
2019-05-20T19:56:05.508Z,61.37
2019-05-20T19:58:35.116Z,61.68
2019-05-20T20:01:04.624Z,62.27
2019-05-20T20:06:03.633Z,61.55
2019-05-20T20:08:33.768Z,61.33
2019-05-20T20:13:34.051Z,60.52
2019-05-20T20:16:06.079Z,59.10
2019-05-20T20:18:35.326Z,59.77
2019-05-20T20:21:05.136Z,59.98
2019-05-20T20:23:35.055Z,60.00
2019-05-20T20:26:04.941Z,58.98
2019-05-20T20:28:35.613Z,56.70
2019-05-20T20:31:05.678Z,55.92
2019-05-20T20:33:37.064Z,58.13
2019-05-20T20:36:06.762Z,59.20
2019-05-20T20:41:04.651Z,60.33
2019-05-20T20:43:33.646Z,61.33
2019-05-20T20:48:31.481Z,63.58
2019-05-20T20:51:00.604Z,63.55
2019-05-20T20:55:58.329Z,62.88
2019-05-20T20:58:27.747Z,63.55
2019-05-20T21:03:25.231Z,62.83
2019-05-20T21:07:34.514Z,57.67
2019-05-20T21:10:04.199Z,59.30
2019-05-20T21:14:12.675Z,57.30
2019-05-20T21:16:42.754Z,56.10
2019-05-20T21:21:41.970Z,55.05
2019-05-20T21:24:12.064Z,56.83
2019-05-20T21:26:40.970Z,53.42
2019-05-20T21:29:10.138Z,55.58
2019-05-20T21:31:39.126Z,54.45
2019-05-20T21:34:08.298Z,52.40
2019-05-20T21:36:47.250Z,53.52
2019-05-20T21:39:08.473Z,51.92
2019-05-20T21:41:37.538Z,55.03
2019-05-20T21:44:06.608Z,53.45
2019-05-20T21:47:09.792Z,53.80
2019-05-20T21:49:38.724Z,52.35
2019-05-20T21:54:36.144Z,53.40
2019-05-20T21:57:04.983Z,55.08
2019-05-20T21:59:34.014Z,55.30
2019-05-20T22:02:03.909Z,52.85
2019-05-20T22:04:32.975Z,52.50
2019-05-20T22:07:02.011Z,55.83
2019-05-20T22:09:31.949Z,55.23
2019-05-20T22:12:01.579Z,51.70
2019-05-20T22:14:30.598Z,51.83
2019-05-20T22:19:28.576Z,52.80
2019-05-20T22:22:26.523Z,54.15
2019-05-20T22:24:55.461Z,52.55
2019-05-20T22:27:24.651Z,54.40
2019-05-20T22:32:25.482Z,51.90
2019-05-20T22:34:55.114Z,52.73
2019-05-20T22:37:25.507Z,51.13
2019-05-20T22:39:55.439Z,51.45
2019-05-20T22:42:25.418Z,51.55
2019-05-20T22:44:55.593Z,49.33
2019-05-20T22:47:25.421Z,52.88
2019-05-20T22:49:55.680Z,49.35
2019-05-20T22:54:55.999Z,50.28
2019-05-20T22:57:26.182Z,53.92
2019-05-20T22:59:55.573Z,50.17
2019-05-20T23:02:25.109Z,51.80
2019-05-20T23:04:54.606Z,48.70
2019-05-20T23:07:24.104Z,47.93
2019-05-20T23:09:54.058Z,48.73
2019-05-20T23:12:23.505Z,47.13
2019-05-20T23:14:53.970Z,48.33
2019-05-20T23:17:23.413Z,49.55
2019-05-20T23:19:52.885Z,45.10
2019-05-20T23:22:21.953Z,45.80
2019-05-20T23:24:51.515Z,45.00
2019-05-20T23:27:20.294Z,44.05
2019-05-20T23:29:49.103Z,41.75
2019-05-20T23:32:17.954Z,41.02
2019-05-20T23:34:47.096Z,40.43
2019-05-20T23:37:16.467Z,42.58
2019-05-20T23:39:45.407Z,41.42
2019-05-20T23:42:14.414Z,39.85
2019-05-20T23:44:43.431Z,40.52
2019-05-20T23:47:12.550Z,41.92
2019-05-20T23:49:41.647Z,38.40
2019-05-20T23:52:10.258Z,39.35
2019-05-20T23:54:38.843Z,38.55
2019-05-20T23:57:07.720Z,38.42
